Terminal Aerodrome Forecast
Issued by NWS Green Bay, WI

Home | Current Version | Previous Version | Text Only | Print | Product List | Glossary Off
Versions: 1 2 3 4 5 6 7 8 9 10 11 12 13 14 15 16 17 18 19 20 21 22 23 24 25 26 27 28 29 30 31 32 33 34 35 36 37 38 39 40 41 42 43 44 45 46 47 48 49 50

608
FTUS43 KGRB 240410 AAB
TAFGRB
TAF AMD
KGRB 240410Z 2404/2424 32003KT P6SM SCT005 OVC025
      TEMPO 2404/2407 4SM BR BKN005
     FM240700 31002KT 2SM BR BKN004
      TEMPO 2409/2413 3/4SM BR BKN003
     FM241400 32003KT 3SM BR OVC004
     FM241600 32004KT P6SM BKN008=

USA.gov is the U.S. government's official web portal to all federal, state and local government web resources and services.